createdAt,value
2023-06-12T00:01:04.557Z,102305.58
2023-06-12T00:03:52.764Z,102299.82
2023-06-12T00:06:21.782Z,102298.08
2023-06-12T00:08:50.470Z,102294.74
2023-06-12T00:11:18.539Z,102299.00
2023-06-12T00:13:48.785Z,102294.26
2023-06-12T00:16:18.189Z,102295.33
2023-06-12T00:18:47.193Z,102297.14
2023-06-12T00:21:15.326Z,102295.23
2023-06-12T00:23:43.838Z,102296.66
2023-06-12T00:26:12.202Z,102289.78
2023-06-12T00:28:41.887Z,102290.83
2023-06-12T00:31:10.047Z,102288.39
2023-06-12T00:33:39.467Z,102293.50
2023-06-12T00:36:07.642Z,102293.34
2023-06-12T00:38:36.216Z,102295.64
2023-06-12T00:41:04.602Z,102299.36
2023-06-12T00:43:32.817Z,102297.78
2023-06-12T00:46:02.021Z,102296.57
2023-06-12T00:48:30.547Z,102296.23
2023-06-12T00:51:00.219Z,102292.89
2023-06-12T00:53:28.630Z,102288.84
2023-06-12T00:55:56.752Z,102295.36
2023-06-12T00:58:24.918Z,102295.55
2023-06-12T01:00:55.760Z,102293.65
2023-06-12T01:03:26.455Z,102296.13
2023-06-12T01:05:56.819Z,102293.68
2023-06-12T01:08:48.695Z,102296.69
2023-06-12T01:11:19.225Z,102291.45
2023-06-12T01:13:47.603Z,102293.94
2023-06-12T01:16:15.799Z,102289.89
2023-06-12T01:18:44.430Z,102292.89
2023-06-12T01:21:18.470Z,102292.39
2023-06-12T01:24:02.324Z,102290.63
2023-06-12T01:27:09.396Z,102288.86
2023-06-12T01:29:52.622Z,102287.88
2023-06-12T01:32:22.094Z,102292.48
2023-06-12T01:35:10.924Z,102294.95
2023-06-12T01:37:52.370Z,102294.80
2023-06-12T01:40:28.115Z,102292.56
2023-06-12T01:42:56.778Z,102295.73
2023-06-12T01:45:24.978Z,102296.80
2023-06-12T01:47:53.517Z,102296.11
2023-06-12T01:50:23.067Z,102292.78
2023-06-12T01:52:51.457Z,102294.74
2023-06-12T01:55:22.854Z,102291.08
2023-06-12T01:57:52.803Z,102291.27
2023-06-12T02:00:24.471Z,102294.80
2023-06-12T02:02:58.019Z,102294.64
2023-06-12T02:05:30.537Z,102295.19
2023-06-12T02:07:58.698Z,102293.45
2023-06-12T02:10:28.602Z,102294.52
2023-06-12T02:12:56.992Z,102296.29
2023-06-12T02:15:25.687Z,102295.59
2023-06-12T02:17:55.328Z,102298.59
2023-06-12T02:20:23.555Z,102296.15
2023-06-12T02:22:51.626Z,102294.39
2023-06-12T02:25:20.005Z,102292.11
2023-06-12T02:27:48.487Z,102294.59
2023-06-12T02:30:16.766Z,102295.83
2023-06-12T02:32:45.172Z,102298.29
2023-06-12T02:35:13.643Z,102299.88
2023-06-12T02:37:42.012Z,102305.36
2023-06-12T02:40:11.478Z,102307.65
2023-06-12T02:42:39.880Z,102304.48
2023-06-12T02:45:08.790Z,102307.49
2023-06-12T02:47:37.193Z,102305.58
2023-06-12T02:50:07.214Z,102304.70
2023-06-12T02:52:42.201Z,102303.98
2023-06-12T02:55:10.844Z,102308.39
2023-06-12T02:57:38.999Z,102313.67
2023-06-12T03:00:08.864Z,102313.84
2023-06-12T03:02:46.451Z,102315.60
2023-06-12T03:05:18.224Z,102314.55
2023-06-12T03:07:46.487Z,102318.95
2023-06-12T03:10:17.846Z,102324.76
2023-06-12T03:12:46.458Z,102321.40
2023-06-12T03:15:18.071Z,102326.65
2023-06-12T03:17:46.514Z,102328.05
2023-06-12T03:20:16.111Z,102327.67
2023-06-12T03:22:44.430Z,102327.64
2023-06-12T03:25:13.433Z,102333.25
2023-06-12T03:27:41.812Z,102331.80
2023-06-12T03:30:10.898Z,102337.06
2023-06-12T03:32:39.854Z,102337.02
2023-06-12T03:35:09.286Z,102338.77
2023-06-12T03:37:38.549Z,102339.11
2023-06-12T03:40:09.842Z,102341.36
2023-06-12T03:42:40.665Z,102340.06
2023-06-12T03:45:11.523Z,102338.36
2023-06-12T03:47:40.297Z,102339.94
2023-06-12T03:50:10.925Z,102342.73
2023-06-12T03:52:39.295Z,102337.11
2023-06-12T03:55:08.208Z,102339.66
2023-06-12T03:57:36.299Z,102336.55
2023-06-12T04:00:06.542Z,102342.84
2023-06-12T04:02:45.420Z,102340.22
2023-06-12T04:05:14.799Z,102336.63
2023-06-12T04:07:42.986Z,102333.66
2023-06-12T04:10:11.678Z,102334.02
2023-06-12T04:12:40.146Z,102334.16
2023-06-12T04:15:09.022Z,102327.54
2023-06-12T04:17:37.463Z,102332.65
2023-06-12T04:20:08.045Z,102333.44
2023-06-12T04:22:37.132Z,102336.81
2023-06-12T04:25:06.762Z,102334.90
2023-06-12T04:27:35.847Z,102335.08
2023-06-12T04:30:04.652Z,102336.27
2023-06-12T04:32:33.574Z,102339.38
2023-06-12T04:35:02.851Z,102344.20
2023-06-12T04:37:31.193Z,102347.34
2023-06-12T04:39:59.273Z,102344.55
2023-06-12T04:42:28.352Z,102347.55
2023-06-12T04:44:57.285Z,102347.36
2023-06-12T04:47:25.987Z,102348.78
2023-06-12T04:49:59.449Z,102352.05
2023-06-12T04:52:27.901Z,102349.07
2023-06-12T04:54:56.497Z,102348.19
2023-06-12T04:57:24.881Z,102349.52
2023-06-12T04:59:54.009Z,102352.05
2023-06-12T05:02:22.677Z,102350.80
2023-06-12T05:04:51.022Z,102356.78
2023-06-12T05:07:20.826Z,102356.02
2023-06-12T05:09:52.384Z,102353.23
2023-06-12T05:12:20.571Z,102357.00
2023-06-12T05:14:48.834Z,102358.89
2023-06-12T05:17:17.321Z,102358.86
2023-06-12T05:19:45.638Z,102357.54
2023-06-12T05:22:14.169Z,102354.77
2023-06-12T05:24:43.893Z,102348.13
2023-06-12T05:27:12.152Z,102356.33
2023-06-12T05:29:40.434Z,102353.05
2023-06-12T05:32:09.672Z,102350.16
2023-06-12T05:34:39.547Z,102350.98
2023-06-12T05:37:07.915Z,102350.42
2023-06-12T05:39:37.112Z,102350.11
2023-06-12T05:42:06.900Z,102346.59
2023-06-12T05:44:36.126Z,102347.73
2023-06-12T05:47:04.860Z,102347.30
2023-06-12T05:49:34.370Z,102344.44
2023-06-12T05:52:04.026Z,102353.98
2023-06-12T05:54:32.739Z,102349.55
2023-06-12T05:57:02.387Z,102350.55
2023-06-12T05:59:31.637Z,102352.50
2023-06-12T06:02:00.905Z,102353.84
2023-06-12T06:04:30.102Z,102357.26
2023-06-12T06:07:00.790Z,102354.58
2023-06-12T06:09:32.900Z,102356.17
2023-06-12T06:12:01.074Z,102357.90
2023-06-12T06:14:31.199Z,102358.86
2023-06-12T06:16:59.354Z,102361.72
2023-06-12T06:19:31.227Z,102360.19
2023-06-12T06:21:59.812Z,102357.98
2023-06-12T06:24:28.535Z,102359.70
2023-06-12T06:26:57.184Z,102358.33
2023-06-12T06:29:25.555Z,102354.50
2023-06-12T06:31:53.648Z,102351.64
2023-06-12T06:34:22.086Z,102350.48
2023-06-12T06:36:50.244Z,102348.13
2023-06-12T06:39:18.663Z,102351.77
2023-06-12T06:41:46.968Z,102356.50
2023-06-12T06:44:15.527Z,102355.36
2023-06-12T06:46:44.683Z,102356.30
2023-06-12T06:49:13.498Z,102356.27
2023-06-12T06:51:42.380Z,102357.42
2023-06-12T06:54:10.964Z,102360.90
2023-06-12T06:56:39.655Z,102355.73
2023-06-12T06:59:08.391Z,102359.86
2023-06-12T07:01:38.848Z,102357.81
2023-06-12T07:04:07.897Z,102355.94
2023-06-12T07:06:36.448Z,102356.23
2023-06-12T07:09:04.840Z,102354.45
2023-06-12T07:11:33.194Z,102358.04
2023-06-12T07:14:01.385Z,102354.50
2023-06-12T07:16:31.411Z,102350.50
2023-06-12T07:19:00.178Z,102350.41
2023-06-12T07:21:28.366Z,102351.98
2023-06-12T07:23:56.668Z,102355.73
2023-06-12T07:26:29.093Z,102353.29
2023-06-12T07:29:02.492Z,102354.64
2023-06-12T07:31:31.934Z,102351.98
2023-06-12T07:34:01.088Z,102350.38
2023-06-12T07:36:32.705Z,102353.14
2023-06-12T07:39:00.911Z,102355.20
2023-06-12T07:41:29.233Z,102352.11
2023-06-12T07:43:58.223Z,102350.77
2023-06-12T07:46:27.125Z,102349.43
2023-06-12T07:48:56.055Z,102354.34
2023-06-12T07:51:25.162Z,102343.98
2023-06-12T07:53:53.632Z,102346.70
2023-06-12T07:56:24.100Z,102346.16
2023-06-12T07:58:53.867Z,102350.56
2023-06-12T08:01:23.633Z,102349.46
2023-06-12T08:03:52.045Z,102348.82
2023-06-12T08:06:21.445Z,102355.57
2023-06-12T08:08:49.682Z,102347.77
2023-06-12T08:11:19.656Z,102350.21
2023-06-12T08:13:51.926Z,102347.63
2023-06-12T08:16:24.946Z,102347.27
2023-06-12T08:18:53.638Z,102342.95
2023-06-12T08:21:26.360Z,102342.36
2023-06-12T08:23:57.561Z,102343.56
2023-06-12T08:26:25.995Z,102346.34
2023-06-12T08:28:55.296Z,102348.48
2023-06-12T08:31:27.254Z,102349.27
2023-06-12T08:33:56.040Z,102341.47
2023-06-12T08:36:24.053Z,102336.79
2023-06-12T08:38:52.030Z,102341.17
2023-06-12T08:41:23.353Z,102335.59
2023-06-12T08:43:54.212Z,102338.15
2023-06-12T08:46:26.983Z,102333.71
2023-06-12T08:48:55.767Z,102331.79
2023-06-12T08:51:26.381Z,102332.55
2023-06-12T08:53:56.284Z,102325.75
2023-06-12T08:56:25.057Z,102323.08
2023-06-12T08:58:53.231Z,102323.39
2023-06-12T09:01:23.122Z,102323.38
2023-06-12T09:03:56.640Z,102327.14
2023-06-12T09:06:25.190Z,102317.36
2023-06-12T09:08:53.406Z,102317.41
2023-06-12T09:11:21.568Z,102316.79
2023-06-12T09:13:52.569Z,102308.95
2023-06-12T09:16:21.503Z,102313.14
2023-06-12T09:18:53.856Z,102316.65
2023-06-12T09:21:26.157Z,102306.83
2023-06-12T09:23:56.930Z,102306.21
2023-06-12T09:26:25.141Z,102300.06
2023-06-12T09:28:54.361Z,102304.16
2023-06-12T09:31:23.107Z,102308.12
2023-06-12T09:33:53.661Z,102301.21
2023-06-12T09:36:42.729Z,102299.03
2023-06-12T09:39:16.765Z,102294.65
2023-06-12T09:41:52.509Z,102291.67
2023-06-12T09:44:23.124Z,102292.11
2023-06-12T09:46:52.446Z,102289.85
2023-06-12T09:52:09.380Z,102286.97
2023-06-12T09:54:38.765Z,102279.23
2023-06-12T09:57:08.756Z,102275.63
2023-06-12T09:59:38.426Z,102278.41
2023-06-12T10:02:13.157Z,102280.48
2023-06-12T10:05:00.785Z,102290.98
2023-06-12T10:07:32.477Z,102275.73
2023-06-12T10:10:04.970Z,102275.65
2023-06-12T10:12:34.592Z,102271.14
2023-06-12T10:15:07.685Z,102271.45
2023-06-12T10:17:37.144Z,102270.58
2023-06-12T10:20:08.094Z,102263.44
2023-06-12T10:22:36.342Z,102265.10
2023-06-12T10:25:05.088Z,102262.03
2023-06-12T10:27:34.092Z,102262.50
2023-06-12T10:30:02.462Z,102264.15
2023-06-12T10:32:33.225Z,102266.73
2023-06-12T10:35:04.890Z,102265.13
2023-06-12T10:37:35.937Z,102260.76
2023-06-12T10:40:14.417Z,102261.42
2023-06-12T10:42:55.225Z,102263.16
2023-06-12T10:45:34.517Z,102264.10
2023-06-12T10:48:10.321Z,102258.95
2023-06-12T10:50:50.915Z,102259.14
2023-06-12T10:53:24.179Z,102252.15
2023-06-12T10:55:57.229Z,102253.45
2023-06-12T10:58:27.231Z,102242.55
2023-06-12T11:00:55.739Z,102248.45
2023-06-12T11:03:35.794Z,102243.60
2023-06-12T11:06:18.518Z,102236.88
2023-06-12T11:08:48.709Z,102229.50
2023-06-12T11:11:18.786Z,102229.77
2023-06-12T11:13:47.808Z,102228.64
2023-06-12T11:16:17.391Z,102223.78
2023-06-12T11:18:46.083Z,102224.98
2023-06-12T11:21:14.724Z,102215.06
2023-06-12T11:23:43.720Z,102210.33
2023-06-12T11:26:11.979Z,102206.48
2023-06-12T11:28:40.154Z,102207.05
2023-06-12T11:31:12.005Z,102208.71
2023-06-12T11:33:41.784Z,102207.52
2023-06-12T11:36:10.378Z,102204.69
2023-06-12T11:41:13.655Z,102186.80
2023-06-12T11:43:44.051Z,102189.60
2023-06-12T11:46:12.498Z,102196.32
2023-06-12T11:51:12.552Z,102188.04
2023-06-12T11:53:41.564Z,102183.48
2023-06-12T11:58:45.755Z,102187.59
2023-06-12T12:01:24.539Z,102184.04
2023-06-12T12:03:58.293Z,102179.94
2023-06-12T12:06:28.221Z,102182.02
2023-06-12T12:08:57.793Z,102178.77
2023-06-12T12:11:31.590Z,102171.38
2023-06-12T12:14:02.447Z,102170.83
2023-06-12T12:16:44.492Z,102174.20
2023-06-12T12:19:20.324Z,102170.42
2023-06-12T12:21:48.386Z,102172.05
2023-06-12T12:24:16.792Z,102168.96
2023-06-12T12:26:52.998Z,102174.75
2023-06-12T12:29:22.505Z,102160.53
2023-06-12T12:31:51.089Z,102153.38
2023-06-12T12:34:19.784Z,102146.81
2023-06-12T12:36:48.778Z,102143.89
2023-06-12T12:39:17.366Z,102139.70
2023-06-12T12:41:45.702Z,102137.66
2023-06-12T12:44:13.770Z,102130.89
2023-06-12T12:46:41.970Z,102134.40
2023-06-12T12:49:13.135Z,102129.69
2023-06-12T12:51:41.616Z,102125.48
2023-06-12T12:54:09.639Z,102129.57
2023-06-12T12:56:37.973Z,102127.16
2023-06-12T12:59:08.139Z,102121.68
2023-06-12T13:01:36.446Z,102118.95
2023-06-12T13:04:04.842Z,102116.53
2023-06-12T13:06:33.636Z,102115.42
2023-06-12T13:09:01.882Z,102113.73
2023-06-12T13:11:30.118Z,102104.71
2023-06-12T13:13:58.189Z,102109.66
2023-06-12T13:16:26.823Z,102103.77
2023-06-12T13:18:54.962Z,102105.17
2023-06-12T13:21:23.170Z,102107.88
2023-06-12T13:23:52.564Z,102101.39
2023-06-12T13:26:21.866Z,102103.08
2023-06-12T13:28:50.002Z,102098.16
2023-06-12T13:31:18.438Z,102101.04
2023-06-12T13:33:46.552Z,102102.67
2023-06-12T13:36:14.783Z,102099.91
2023-06-12T13:38:43.366Z,102099.63
2023-06-12T13:41:12.748Z,102096.77
2023-06-12T13:43:42.322Z,102090.05
2023-06-12T13:46:11.311Z,102097.02
2023-06-12T13:48:39.765Z,102095.59
2023-06-12T13:51:07.851Z,102086.45
2023-06-12T13:53:36.270Z,102085.55
2023-06-12T13:56:04.859Z,102084.77
2023-06-12T13:58:32.962Z,102080.63
2023-06-12T14:01:01.120Z,102079.40
2023-06-12T14:03:29.154Z,102072.54
2023-06-12T14:05:57.454Z,102072.63
2023-06-12T14:08:25.555Z,102068.60
2023-06-12T14:10:53.935Z,102067.11
2023-06-12T14:13:22.176Z,102072.04
2023-06-12T14:15:50.287Z,102070.77
2023-06-12T14:18:18.760Z,102071.84
2023-06-12T14:20:47.162Z,102070.23
2023-06-12T14:23:15.207Z,102063.27
2023-06-12T14:25:43.442Z,102057.63
2023-06-12T14:28:11.633Z,102058.58
2023-06-12T14:30:39.745Z,102056.36
2023-06-12T14:33:08.097Z,102060.81
2023-06-12T14:35:36.290Z,102054.34
2023-06-12T14:38:04.598Z,102052.61
2023-06-12T14:40:32.905Z,102054.14
2023-06-12T14:43:01.064Z,102055.95
2023-06-12T14:45:29.294Z,102052.30
2023-06-12T14:47:57.557Z,102051.92
2023-06-12T14:50:25.787Z,102058.23
2023-06-12T14:52:53.755Z,102053.13
2023-06-12T14:55:21.923Z,102048.05
2023-06-12T14:57:49.996Z,102052.35
2023-06-12T15:00:18.741Z,102051.31
2023-06-12T15:02:46.920Z,102048.00
2023-06-12T15:05:15.656Z,102050.11
2023-06-12T15:07:44.021Z,102050.05
2023-06-12T15:10:12.105Z,102037.23
2023-06-12T15:12:41.099Z,102035.23
2023-06-12T15:15:12.729Z,102037.65
2023-06-12T15:17:41.137Z,102034.63
2023-06-12T15:20:09.593Z,102037.70
2023-06-12T15:22:37.664Z,102037.16
2023-06-12T15:25:06.008Z,102039.94
2023-06-12T15:27:34.212Z,102035.45
2023-06-12T15:30:02.495Z,102032.74
2023-06-12T15:32:31.000Z,102031.75
2023-06-12T15:34:59.102Z,102029.64
2023-06-12T15:37:27.208Z,102032.23
2023-06-12T15:39:55.558Z,102027.67
2023-06-12T15:42:23.833Z,102029.45
2023-06-12T15:44:52.033Z,102038.77
2023-06-12T15:47:20.861Z,102034.29
2023-06-12T15:49:49.146Z,102036.34
2023-06-12T15:52:17.169Z,102032.27
2023-06-12T15:54:45.222Z,102036.27
2023-06-12T15:57:13.357Z,102033.56
2023-06-12T15:59:41.459Z,102024.65
2023-06-12T16:02:09.633Z,102025.92
2023-06-12T16:04:39.027Z,102016.41
2023-06-12T16:07:07.492Z,102014.80
2023-06-12T16:09:36.073Z,102014.46
2023-06-12T16:12:04.413Z,102019.83
2023-06-12T16:14:32.550Z,102013.59
2023-06-12T16:17:01.620Z,102016.17
2023-06-12T16:19:30.042Z,102013.35
2023-06-12T16:21:58.108Z,102007.69
2023-06-12T16:24:26.913Z,102005.95
2023-06-12T16:26:55.191Z,102005.70
2023-06-12T16:29:23.448Z,102007.51
2023-06-12T16:31:52.434Z,102001.80
2023-06-12T16:34:23.168Z,102005.36
2023-06-12T16:36:51.394Z,102002.84
2023-06-12T16:39:19.523Z,102004.55
2023-06-12T16:41:47.716Z,102006.63
2023-06-12T16:44:15.759Z,102006.75
2023-06-12T16:46:43.965Z,102008.49
2023-06-12T16:49:12.107Z,102008.21
2023-06-12T16:51:40.279Z,102006.77
2023-06-12T16:54:08.694Z,102005.66
2023-06-12T16:56:37.030Z,102009.08
2023-06-12T16:59:05.306Z,102016.86
2023-06-12T17:01:33.721Z,102013.77
2023-06-12T17:04:02.265Z,102010.11
2023-06-12T17:06:30.744Z,102010.95
2023-06-12T17:08:59.849Z,102010.73
2023-06-12T17:11:28.264Z,102016.77
2023-06-12T17:13:56.542Z,102017.39
2023-06-12T17:16:24.661Z,102022.51
2023-06-12T17:18:52.944Z,102019.05
2023-06-12T17:21:21.060Z,102021.13
2023-06-12T17:23:49.179Z,102016.34
2023-06-12T17:26:17.469Z,102012.14
2023-06-12T17:28:45.534Z,102011.47
2023-06-12T17:31:13.692Z,102010.29
2023-06-12T17:33:41.992Z,102017.58
2023-06-12T17:36:10.078Z,102020.62
2023-06-12T17:38:38.204Z,102015.02
2023-06-12T17:41:06.349Z,102019.79
2023-06-12T17:43:34.517Z,102017.71
2023-06-12T17:46:03.142Z,102022.92
2023-06-12T17:48:31.743Z,102021.24
2023-06-12T17:50:59.995Z,102014.63
2023-06-12T17:53:28.283Z,102022.20
2023-06-12T17:55:56.570Z,102022.36
2023-06-12T17:58:24.733Z,102031.50
2023-06-12T18:00:53.711Z,102025.43
2023-06-12T18:03:22.056Z,102029.59
2023-06-12T18:05:50.360Z,102032.55
2023-06-12T18:08:18.453Z,102035.09
2023-06-12T18:10:46.639Z,102040.05
2023-06-12T18:13:16.350Z,102041.54
2023-06-12T18:15:46.656Z,102042.33
2023-06-12T18:18:17.978Z,102042.56
2023-06-12T18:20:46.548Z,102040.46
2023-06-12T18:23:15.170Z,102038.70
2023-06-12T18:25:43.445Z,102038.02
2023-06-12T18:28:11.515Z,102040.55
2023-06-12T18:30:39.694Z,102040.88
2023-06-12T18:33:08.215Z,102040.13
2023-06-12T18:35:37.511Z,102039.60
2023-06-12T18:38:07.070Z,102038.65
2023-06-12T18:40:35.256Z,102037.36
2023-06-12T18:43:03.984Z,102034.33
2023-06-12T18:45:32.348Z,102032.88
2023-06-12T18:48:00.352Z,102031.06
2023-06-12T18:50:28.646Z,102028.59
2023-06-12T18:52:56.917Z,102032.05
2023-06-12T18:55:25.032Z,102036.05
2023-06-12T18:57:53.117Z,102032.52
2023-06-12T19:00:21.342Z,102037.33
2023-06-12T19:02:53.581Z,102038.16
2023-06-12T19:05:22.497Z,102035.48
2023-06-12T19:07:50.978Z,102041.25
2023-06-12T19:10:19.007Z,102040.88
2023-06-12T19:12:47.078Z,102042.05
2023-06-12T19:15:15.710Z,102040.37
2023-06-12T19:17:44.111Z,102038.20
2023-06-12T19:20:13.084Z,102040.64
2023-06-12T19:22:41.146Z,102039.69
2023-06-12T19:25:09.509Z,102036.11
2023-06-12T19:27:37.752Z,102037.06
2023-06-12T19:30:06.800Z,102037.68
2023-06-12T19:32:35.643Z,102042.68
2023-06-12T19:35:03.959Z,102042.81
2023-06-12T19:37:32.129Z,102042.89
2023-06-12T19:40:00.471Z,102044.73
2023-06-12T19:42:29.808Z,102043.41
2023-06-12T19:44:57.983Z,102040.11
2023-06-12T19:47:26.161Z,102043.69
2023-06-12T19:49:56.570Z,102038.27
2023-06-12T19:52:24.851Z,102038.85
2023-06-12T19:54:53.340Z,102040.82
2023-06-12T19:57:21.540Z,102045.80
2023-06-12T19:59:49.941Z,102049.89
2023-06-12T20:02:18.058Z,102050.67
2023-06-12T20:04:46.638Z,102042.98
2023-06-12T20:07:14.686Z,102038.77
2023-06-12T20:09:43.091Z,102039.50
2023-06-12T20:12:11.359Z,102043.23
2023-06-12T20:14:39.663Z,102040.09
2023-06-12T20:17:07.693Z,102034.16
2023-06-12T20:19:36.378Z,102043.14
2023-06-12T20:22:05.137Z,102040.90
2023-06-12T20:24:37.886Z,102044.62
2023-06-12T20:27:07.461Z,102040.80
2023-06-12T20:29:35.785Z,102041.05
2023-06-12T20:32:04.889Z,102039.84
2023-06-12T20:34:33.381Z,102034.37
2023-06-12T20:37:01.590Z,102033.52
2023-06-12T20:39:29.824Z,102036.36
2023-06-12T20:41:58.026Z,102046.83
2023-06-12T20:44:26.224Z,102046.19
2023-06-12T20:46:54.232Z,102044.08
2023-06-12T20:49:22.348Z,102042.84
2023-06-12T20:51:51.040Z,102038.09
2023-06-12T20:54:19.341Z,102040.17
2023-06-12T20:56:47.410Z,102044.05
2023-06-12T20:59:19.072Z,102046.33
2023-06-12T21:01:47.709Z,102050.91
2023-06-12T21:04:15.903Z,102053.18
2023-06-12T21:06:44.170Z,102052.60
2023-06-12T21:09:12.341Z,102051.38
2023-06-12T21:11:40.888Z,102050.85
2023-06-12T21:14:13.855Z,102054.62
2023-06-12T21:16:42.005Z,102064.08
2023-06-12T21:19:13.360Z,102060.65
2023-06-12T21:21:42.343Z,102064.08
2023-06-12T21:24:10.795Z,102061.69
2023-06-12T21:26:38.969Z,102063.20
2023-06-12T21:29:08.238Z,102063.95
2023-06-12T21:31:36.574Z,102070.30
2023-06-12T21:34:04.687Z,102071.26
2023-06-12T21:36:32.954Z,102073.27
2023-06-12T21:43:20.046Z,102091.17
2023-06-12T21:45:48.369Z,102086.82
2023-06-12T21:48:17.353Z,102094.78
2023-06-12T21:50:45.620Z,102101.05
2023-06-12T21:53:13.747Z,102101.80
2023-06-12T21:55:42.033Z,102103.13
2023-06-12T21:58:10.175Z,102098.08
2023-06-12T22:00:38.320Z,102091.94
2023-06-12T22:03:06.681Z,102091.29
2023-06-12T22:05:35.128Z,102093.09
2023-06-12T22:08:06.844Z,102092.62
2023-06-12T22:10:35.773Z,102091.45
2023-06-12T22:13:04.544Z,102089.00
2023-06-12T22:15:32.803Z,102085.66
2023-06-12T22:18:01.280Z,102085.35
2023-06-12T22:20:29.581Z,102082.40
2023-06-12T22:22:57.741Z,102080.86
2023-06-12T22:25:25.909Z,102078.45
2023-06-12T22:27:54.494Z,102089.81
2023-06-12T22:30:22.894Z,102094.29
2023-06-12T22:32:51.273Z,102107.54
2023-06-12T22:35:19.618Z,102106.37
2023-06-12T22:37:47.797Z,102109.40
2023-06-12T22:40:17.734Z,102107.30
2023-06-12T22:42:48.278Z,102107.54
2023-06-12T22:45:17.472Z,102102.14
2023-06-12T22:47:45.883Z,102104.47
2023-06-12T22:50:14.107Z,102102.37
2023-06-12T22:52:42.699Z,102101.73
2023-06-12T22:55:12.261Z,102097.54
2023-06-12T22:57:41.157Z,102099.12
2023-06-12T23:00:11.825Z,102096.84
2023-06-12T23:02:40.191Z,102096.88
2023-06-12T23:05:09.412Z,102097.59
2023-06-12T23:07:38.801Z,102093.23
2023-06-12T23:10:07.763Z,102092.04
2023-06-12T23:12:36.321Z,102092.75
2023-06-12T23:15:05.151Z,102088.73
2023-06-12T23:17:40.498Z,102085.45
2023-06-12T23:20:11.379Z,102081.63
2023-06-12T23:22:40.237Z,102082.55
2023-06-12T23:25:09.185Z,102081.34
2023-06-12T23:27:37.922Z,102084.91
2023-06-12T23:30:07.066Z,102080.38
2023-06-12T23:32:35.289Z,102080.21
2023-06-12T23:35:03.573Z,102080.08
2023-06-12T23:37:32.179Z,102076.08
2023-06-12T23:40:00.583Z,102073.64
2023-06-12T23:42:28.786Z,102073.48
2023-06-12T23:44:56.979Z,102072.80
2023-06-12T23:47:25.389Z,102075.14
2023-06-12T23:49:53.686Z,102073.40
2023-06-12T23:52:21.884Z,102071.32
2023-06-12T23:54:50.263Z,102071.65
2023-06-12T23:57:18.441Z,102066.21
2023-06-12T23:59:47.359Z,102065.72
